Time;durP1;ratioP1;P1;durP2;ratioP2;P2;SDS_P1;SDS_P2;PMS_P1;PMS_P2;Temp;Humidity;BMP_temperature;BMP_pressure;BME280_temperature;BME280_humidity;BME280_pressure;Samples;Min_cycle;Max_cycle;Signal;HPM_P1;HPM_P2
2021/05/13 00:00:09;;;;;;;;;;;;;;;21.62;56.52;100375.31;2101140;28;4013;-35
2021/05/13 00:01:10;;;;;;;;;;;;;;;21.62;56.54;100376.13;2101034;28;4733;-38
2021/05/13 00:02:11;;;;;;;;;;;;;;;21.62;56.34;100372.47;2100953;28;4053;-34
2021/05/13 00:03:13;;;;;;;;;;;;;;;21.62;56.64;100372.47;2099630;28;4098;-36
2021/05/13 00:04:14;;;;;;;;;;;;;;;21.63;56.61;100376.94;2100861;28;4046;-36
2021/05/13 00:05:15;;;;;;;;;;;;;;;21.63;56.54;100377.78;2100019;28;4045;-35
2021/05/13 00:06:16;;;;;;;;;;;;;;;21.63;56.61;100374.09;2101078;28;4028;-37
2021/05/13 00:07:17;;;;;;;;;;;;;;;21.63;56.54;100374.09;2101024;28;3891;-40
2021/05/13 00:08:19;;;;;;;;;;;;;;;21.63;56.45;100374.91;2100540;28;4045;-37
2021/05/13 00:09:20;;;;;;;;;;;;;;;21.63;56.68;100374.09;2100774;28;3880;-36
2021/05/13 00:10:23;;;;;;;;;;;;;;;21.62;56.41;100376.13;2100912;28;4090;-37
2021/05/13 00:11:29;;;;;;;;;;;;;;;21.62;56.32;100366.75;2100598;28;4143;-37
2021/05/13 00:13:38;;;;;;;;;;;;;;;21.61;56.40;100370.78;2101306;28;4032;-39
2021/05/13 00:14:39;;;;;;;;;;;;;;;21.61;56.40;100365.91;2099789;28;3862;-40
2021/05/13 00:15:40;;;;;;;;;;;;;;;21.61;56.22;100362.25;2099658;28;3999;-37
2021/05/13 00:16:41;;;;;;;;;;;;;;;21.60;56.53;100358.59;2101442;28;4100;-39
2021/05/13 00:17:43;;;;;;;;;;;;;;;21.60;56.52;100358.59;2100616;28;4048;-36
2021/05/13 00:18:44;;;;;;;;;;;;;;;21.61;56.54;100365.91;2101004;28;4077;-36
2021/05/13 00:19:46;;;;;;;;;;;;;;;21.62;56.46;100363.91;2101560;28;3982;-38
2021/05/13 00:20:47;;;;;;;;;;;;;;;21.62;56.29;100358.22;2101437;28;3881;-36
2021/05/13 00:21:48;;;;;;;;;;;;;;;21.61;56.52;100353.72;2101772;28;3999;-37
2021/05/13 00:22:49;;;;;;;;;;;;;;;21.61;56.30;100351.69;2100040;28;4325;-39
2021/05/13 00:23:51;;;;;;;;;;;;;;;21.62;56.46;100347.66;2101048;28;4037;-39
2021/05/13 00:24:52;;;;;;;;;;;;;;;21.62;56.36;100347.66;2100290;28;3969;-39
2021/05/13 00:25:53;;;;;;;;;;;;;;;21.60;56.44;100347.19;2101507;28;3995;-35
2021/05/13 00:26:59;;;;;;;;;;;;;;;21.61;56.36;100348.84;2100981;28;3864;-38
2021/05/13 00:28:00;;;;;;;;;;;;;;;21.61;56.54;100348.84;2101449;28;3889;-36
2021/05/13 00:29:01;;;;;;;;;;;;;;;21.62;56.28;100349.69;2101054;28;4014;-35
2021/05/13 00:30:02;;;;;;;;;;;;;;;21.61;56.36;100346.00;2101019;28;4197;-39
2021/05/13 00:31:04;;;;;;;;;;;;;;;21.61;56.40;100354.53;2101235;28;3837;-34
2021/05/13 00:32:05;;;;;;;;;;;;;;;21.62;56.55;100346.84;2101468;28;4009;-34
2021/05/13 00:33:06;;;;;;;;;;;;;;;21.65;56.77;100351.78;2101727;28;3991;-38
2021/05/13 00:34:07;;;;;;;;;;;;;;;21.64;56.89;100350.13;2100984;28;3828;-36
2021/05/13 00:35:09;;;;;;;;;;;;;;;21.63;56.61;100348.47;2099297;28;3974;-37
2021/05/13 00:36:10;;;;;;;;;;;;;;;21.62;56.64;100347.66;2101060;28;4861;-40
2021/05/13 00:37:11;;;;;;;;;;;;;;;21.61;56.68;100346.00;2097488;28;4101;-38
2021/05/13 00:38:12;;;;;;;;;;;;;;;21.62;56.69;100347.66;2101942;28;4122;-37
2021/05/13 00:39:13;;;;;;;;;;;;;;;21.62;56.83;100344.81;2100898;28;4151;-37
2021/05/13 00:40:15;;;;;;;;;;;;;;;21.62;56.78;100344.81;2098875;28;4061;-37
2021/05/13 00:41:16;;;;;;;;;;;;;;;21.62;56.55;100344.81;2100511;28;4046;-40
2021/05/13 00:42:17;;;;;;;;;;;;;;;21.62;56.64;100339.13;2099772;28;4029;-35
2021/05/13 00:43:18;;;;;;;;;;;;;;;21.62;56.49;100338.31;2101477;28;4082;-34
2021/05/13 00:44:20;;;;;;;;;;;;;;;21.62;56.45;100336.28;2100679;28;3869;-38
2021/05/13 00:45:21;;;;;;;;;;;;;;;21.61;56.56;100337.44;2099033;28;4063;-34
2021/05/13 00:46:23;;;;;;;;;;;;;;;21.63;56.60;100339.94;2101614;28;4000;-37
2021/05/13 00:47:26;;;;;;;;;;;;;;;21.62;56.62;100333.44;2099977;28;4044;-35
2021/05/13 00:48:33;;;;;;;;;;;;;;;21.62;56.48;100336.28;2100272;28;3881;-34
2021/05/13 00:49:34;;;;;;;;;;;;;;;21.63;56.73;100334.25;2101456;28;3846;-37
2021/05/13 00:50:36;;;;;;;;;;;;;;;21.63;56.61;100329.38;2098433;28;3935;-35
2021/05/13 00:51:37;;;;;;;;;;;;;;;21.62;56.62;100330.59;2101450;28;4001;-35
2021/05/13 00:52:38;;;;;;;;;;;;;;;21.62;56.63;100333.44;2100875;28;4026;-36
2021/05/13 00:53:39;;;;;;;;;;;;;;;21.62;56.71;100324.88;2092009;28;3892;-35
2021/05/13 00:54:41;;;;;;;;;;;;;;;21.62;56.42;100322.03;2092559;28;3998;-36
2021/05/13 00:55:42;;;;;;;;;;;;;;;21.61;56.53;100326.06;2094317;28;4035;-36
2021/05/13 00:56:43;;;;;;;;;;;;;;;21.62;56.56;100326.91;2101358;28;4004;-39
2021/05/13 00:57:46;;;;;;;;;;;;;;;21.61;56.76;100326.06;2101221;28;3864;-39
2021/05/13 00:58:48;;;;;;;;;;;;;;;21.62;56.53;100326.91;2101308;28;3867;-40
2021/05/13 00:59:54;;;;;;;;;;;;;;;21.63;56.63;100325.72;2101363;28;4047;-37
2021/05/13 01:01:58;;;;;;;;;;;;;;;21.63;56.79;100322.84;2101112;28;4029;-39
2021/05/13 01:02:59;;;;;;;;;;;;;;;21.63;56.57;100329.38;2101319;28;4023;-39
2021/05/13 01:04:00;;;;;;;;;;;;;;;21.63;56.54;100328.56;2101393;28;4004;-39
2021/05/13 01:05:01;;;;;;;;;;;;;;;21.63;56.61;100328.56;2101360;28;3858;-37
2021/05/13 01:06:02;;;;;;;;;;;;;;;21.63;56.71;100323.69;2101493;28;3894;-39
2021/05/13 01:07:04;;;;;;;;;;;;;;;21.63;56.61;100322.84;2100660;28;4043;-38
2021/05/13 01:08:05;;;;;;;;;;;;;;;21.63;56.67;100320.84;2100817;28;3940;-37
2021/05/13 01:09:11;;;;;;;;;;;;;;;21.64;56.46;100313.13;2102707;28;4215;-36
2021/05/13 01:10:12;;;;;;;;;;;;;;;21.63;56.48;100317.16;2102134;28;4721;-38
2021/05/13 01:11:14;;;;;;;;;;;;;;;21.64;56.51;100315.97;2103019;28;4013;-35
2021/05/13 01:12:18;;;;;;;;;;;;;;;21.63;56.45;100309.44;2103020;28;4004;-39
2021/05/13 01:13:22;;;;;;;;;;;;;;;21.62;56.47;100307.81;2101625;28;4041;-36
2021/05/13 01:14:26;;;;;;;;;;;;;;;21.63;56.54;100305.78;2102850;28;3958;-38
2021/05/13 01:15:33;;;;;;;;;;;;;;;21.63;56.56;100312.28;2103363;28;4092;-40
2021/05/13 01:16:46;;;;;;;;;;;;;;;21.63;56.49;100303.75;2102633;28;4045;-35
2021/05/13 01:18:15;;;;;;;;;;;;;;;21.62;56.52;100302.13;2101586;28;1923;-35
2021/05/13 01:19:09;;;;;;;;;;;;;;;21.62;56.47;100292.75;2093640;28;3990;-40
2021/05/13 01:20:10;;;;;;;;;;;;;;;21.62;56.59;100292.75;2094474;28;4929;-36
2021/05/13 01:21:11;;;;;;;;;;;;;;;21.62;56.58;100296.41;2094036;28;4192;-38
2021/05/13 01:22:13;;;;;;;;;;;;;;;21.63;56.61;100297.25;2094387;28;4078;-40
2021/05/13 01:23:14;;;;;;;;;;;;;;;21.63;56.44;100300.91;2094116;28;4129;-39
2021/05/13 01:24:15;;;;;;;;;;;;;;;21.62;56.58;100299.25;2094717;28;3923;-39
2021/05/13 01:25:16;;;;;;;;;;;;;;;21.62;56.57;100299.25;2094299;28;4256;-38
2021/05/13 01:26:18;;;;;;;;;;;;;;;21.62;56.49;100293.56;2093700;28;4571;-38
2021/05/13 01:27:20;;;;;;;;;;;;;;;21.63;56.43;100294.41;2092595;28;4159;-35
2021/05/13 01:28:21;;;;;;;;;;;;;;;21.62;56.36;100302.13;2092545;28;4132;-38
2021/05/13 01:29:22;;;;;;;;;;;;;;;21.63;56.54;100300.09;2092444;28;3922;-39
2021/05/13 01:30:23;;;;;;;;;;;;;;;21.62;56.45;100295.59;2092150;28;3886;-37
2021/05/13 01:31:25;;;;;;;;;;;;;;;21.62;56.63;100292.75;2091665;28;4018;-34
2021/05/13 01:32:26;;;;;;;;;;;;;;;21.63;56.53;100294.41;2093808;28;4178;-37
2021/05/13 01:33:27;;;;;;;;;;;;;;;21.62;56.52;100290.72;2094477;28;3886;-36
2021/05/13 01:34:28;;;;;;;;;;;;;;;21.63;56.43;100291.53;2093488;28;4050;-36
2021/05/13 01:35:30;;;;;;;;;;;;;;;21.63;56.47;100274.47;2094540;28;4032;-36
2021/05/13 01:36:31;;;;;;;;;;;;;;;21.62;56.50;100270.78;2093828;28;4241;-39
2021/05/13 01:37:33;;;;;;;;;;;;;;;21.63;56.57;100277.31;2093039;28;4068;-37
2021/05/13 01:38:34;;;;;;;;;;;;;;;21.63;56.61;100277.31;2094555;28;4963;-37
2021/05/13 01:39:35;;;;;;;;;;;;;;;21.63;56.41;100283.00;2093684;28;5086;-37
2021/05/13 01:40:36;;;;;;;;;;;;;;;21.62;56.40;100273.66;2095221;28;4081;-37
2021/05/13 01:41:38;;;;;;;;;;;;;;;21.62;56.42;100270.78;2094051;28;4153;-39
2021/05/13 01:42:39;;;;;;;;;;;;;;;21.63;56.45;100272.44;2094395;28;4020;-36
2021/05/13 01:43:40;;;;;;;;;;;;;;;21.63;56.64;100268.78;2094263;28;4066;-35
2021/05/13 01:44:41;;;;;;;;;;;;;;;21.63;56.52;100265.94;2094616;28;4077;-38
2021/05/13 01:45:43;;;;;;;;;;;;;;;21.63;56.71;100263.06;2094257;28;4087;-37
2021/05/13 01:46:44;;;;;;;;;;;;;;;21.63;56.53;100265.94;2094032;28;4128;-38
2021/05/13 01:47:45;;;;;;;;;;;;;;;21.63;56.57;100263.06;2094015;28;3993;-40
2021/05/13 01:48:47;;;;;;;;;;;;;;;21.63;56.52;100258.19;2094489;28;4050;-37
2021/05/13 01:49:48;;;;;;;;;;;;;;;21.63;56.57;100252.50;2092892;28;3879;-39
2021/05/13 01:50:49;;;;;;;;;;;;;;;21.62;56.48;100250.88;2093770;28;3856;-35
2021/05/13 01:51:51;;;;;;;;;;;;;;;21.63;56.60;100249.66;2093743;28;4071;-36
2021/05/13 01:52:54;;;;;;;;;;;;;;;21.63;56.51;100252.50;2094060;28;3884;-39
2021/05/13 01:53:55;;;;;;;;;;;;;;;21.63;56.36;100246.00;2094512;28;4017;-34
2021/05/13 01:54:56;;;;;;;;;;;;;;;21.63;56.49;100243.97;2093920;28;4074;-37
2021/05/13 01:55:58;;;;;;;;;;;;;;;21.62;56.47;100236.63;2093796;28;4174;-34
2021/05/13 01:56:59;;;;;;;;;;;;;;;21.62;56.47;100236.63;2094287;28;4327;-35
2021/05/13 01:58:00;;;;;;;;;;;;;;;21.62;56.49;100233.78;2093957;28;4080;-34
2021/05/13 01:59:01;;;;;;;;;;;;;;;21.63;56.40;100223.22;2094305;28;3865;-35
2021/05/13 02:00:02;;;;;;;;;;;;;;;21.62;56.65;100219.56;2093717;28;4023;-39
2021/05/13 02:01:04;;;;;;;;;;;;;;;21.62;56.53;100225.25;2094087;28;4017;-36
2021/05/13 02:02:07;;;;;;;;;;;;;;;21.63;56.47;100226.06;2093971;28;4032;-35
2021/05/13 02:03:08;;;;;;;;;;;;;;;21.63;56.51;100229.75;2094214;28;3992;-36
2021/05/13 02:04:10;;;;;;;;;;;;;;;21.62;56.59;100236.63;2093345;28;3903;-35
2021/05/13 02:05:11;;;;;;;;;;;;;;;21.63;56.57;100229.75;2093660;28;4155;-34
2021/05/13 02:06:12;;;;;;;;;;;;;;;21.63;56.52;100226.06;2094308;28;3893;-40
2021/05/13 02:07:13;;;;;;;;;;;;;;;21.63;56.72;100234.63;2093656;28;4732;-37
2021/05/13 02:08:15;;;;;;;;;;;;;;;21.63;56.58;100226.06;2094139;28;4046;-38
2021/05/13 02:09:16;;;;;;;;;;;;;;;21.63;56.61;100229.75;2093799;28;3875;-39
2021/05/13 02:10:17;;;;;;;;;;;;;;;21.63;56.54;100226.06;2093135;28;3972;-35
2021/05/13 02:11:18;;;;;;;;;;;;;;;21.64;56.47;100222.88;2094215;28;4037;-35
2021/05/13 02:12:20;;;;;;;;;;;;;;;21.64;56.62;100222.88;2093821;28;4068;-39
2021/05/13 02:13:21;;;;;;;;;;;;;;;21.64;56.62;100228.56;2093586;28;3911;-39
2021/05/13 02:14:22;;;;;;;;;;;;;;;21.64;56.52;100222.88;2094648;28;3887;-35
2021/05/13 02:15:23;;;;;;;;;;;;;;;21.64;56.44;100219.16;2092936;28;4056;-37
2021/05/13 02:16:26;;;;;;;;;;;;;;;21.64;56.50;100222.03;2094385;28;4043;-39
2021/05/13 02:17:28;;;;;;;;;;;;;;;21.65;56.63;100220.84;2093845;28;3865;-37
2021/05/13 02:18:29;;;;;;;;;;;;;;;21.64;56.68;100222.03;2097956;28;3887;-36
2021/05/13 02:19:30;;;;;;;;;;;;;;;21.64;56.67;100216.31;2101280;28;4115;-34
2021/05/13 02:20:31;;;;;;;;;;;;;;;21.65;56.74;100215.97;2102070;28;3892;-37
2021/05/13 02:21:33;;;;;;;;;;;;;;;21.64;56.60;100211.47;2100615;28;4064;-37
2021/05/13 02:22:34;;;;;;;;;;;;;;;21.64;56.81;100214.31;2101392;28;4070;-38
2021/05/13 02:23:35;;;;;;;;;;;;;;;21.64;56.66;100205.78;2098433;28;4272;-39
2021/05/13 02:24:37;;;;;;;;;;;;;;;21.65;56.52;100203.75;2101103;28;4333;-39
2021/05/13 02:25:39;;;;;;;;;;;;;;;21.64;56.67;100202.94;2101217;28;4069;-36
2021/05/13 02:26:40;;;;;;;;;;;;;;;21.64;56.69;100196.41;2101816;28;3791;-34
2021/05/13 02:27:41;;;;;;;;;;;;;;;21.64;56.77;100193.56;2099094;28;4254;-39
2021/05/13 02:28:43;;;;;;;;;;;;;;;21.64;56.63;100187.84;2102275;28;3826;-40
2021/05/13 02:29:44;;;;;;;;;;;;;;;21.64;56.76;100185.00;2100311;28;3892;-35
2021/05/13 02:30:45;;;;;;;;;;;;;;;21.64;56.75;100185.84;2102082;28;3993;-34
2021/05/13 02:31:46;;;;;;;;;;;;;;;21.63;56.59;100187.03;2102172;28;4063;-39
2021/05/13 02:32:48;;;;;;;;;;;;;;;21.64;56.60;100183.00;2101369;28;4229;-38
2021/05/13 02:33:50;;;;;;;;;;;;;;;21.64;56.81;100185.84;2102236;28;4084;-35
2021/05/13 02:34:51;;;;;;;;;;;;;;;21.64;56.68;100187.84;2101692;28;4016;-37
2021/05/13 02:35:52;;;;;;;;;;;;;;;21.64;56.79;100187.84;2092826;28;3973;-40
2021/05/13 02:36:53;;;;;;;;;;;;;;;21.64;56.60;100191.56;2093208;28;4049;-37
2021/05/13 02:37:56;;;;;;;;;;;;;;;21.63;56.76;100181.34;2092518;28;4034;-37
2021/05/13 02:38:57;;;;;;;;;;;;;;;21.63;56.69;100189.88;2099220;28;3981;-38
2021/05/13 02:39:58;;;;;;;;;;;;;;;21.64;56.76;100194.41;2101600;28;4045;-37
2021/05/13 02:40:59;;;;;;;;;;;;;;;21.64;56.63;100188.72;2092388;28;3905;-36
2021/05/13 02:42:00;;;;;;;;;;;;;;;21.64;56.69;100190.72;2093060;28;4005;-35
2021/05/13 02:43:03;;;;;;;;;;;;;;;21.64;56.90;100188.72;2099764;28;3854;-39
2021/05/13 02:44:04;;;;;;;;;;;;;;;21.65;56.79;100180.97;2101404;28;4029;-39
2021/05/13 02:45:06;;;;;;;;;;;;;;;21.65;56.88;100175.28;2102146;28;4265;-35
2021/05/13 02:46:07;;;;;;;;;;;;;;;21.66;56.96;100174.09;2101192;28;5228;-37
2021/05/13 02:47:08;;;;;;;;;;;;;;;21.65;56.79;100164.72;2101697;28;3970;-38
2021/05/13 02:48:09;;;;;;;;;;;;;;;21.65;56.88;100161.88;2100886;28;3917;-39
2021/05/13 02:49:11;;;;;;;;;;;;;;;21.65;56.55;100158.22;2101461;28;4933;-37
2021/05/13 02:50:12;;;;;;;;;;;;;;;21.65;56.84;100161.88;2100955;28;3902;-39
2021/05/13 02:51:13;;;;;;;;;;;;;;;21.65;56.86;100159.03;2101731;28;4048;-37
2021/05/13 02:52:15;;;;;;;;;;;;;;;21.65;56.84;100159.03;2102485;28;3891;-37
2021/05/13 02:53:16;;;;;;;;;;;;;;;21.66;56.72;100157.00;2100823;28;4060;-40
2021/05/13 02:54:17;;;;;;;;;;;;;;;21.65;56.72;100156.19;2101378;28;4038;-38
2021/05/13 02:55:18;;;;;;;;;;;;;;;21.67;57.14;100162.34;2100945;28;4067;-39
2021/05/13 02:56:20;;;;;;;;;;;;;;;21.67;57.10;100161.47;2101816;28;4042;-38
2021/05/13 02:57:21;;;;;;;;;;;;;;;21.66;57.12;100157.81;2101742;28;4038;-40
2021/05/13 02:58:22;;;;;;;;;;;;;;;21.66;57.07;100163.50;2101005;28;4050;-35
2021/05/13 02:59:32;;;;;;;;;;;;;;;21.65;57.05;100159.03;2101477;28;3878;-40
2021/05/13 03:00:53;;;;;;;;;;;;;;;21.65;56.90;100161.88;2101109;28;4015;-38
2021/05/13 03:01:55;;;;;;;;;;;;;;;21.64;57.00;100154.53;2100827;28;4041;-34
2021/05/13 03:02:56;;;;;;;;;;;;;;;21.65;56.88;100161.88;2100860;28;3988;-33
2021/05/13 03:03:58;;;;;;;;;;;;;;;21.66;56.89;100165.53;2099758;28;3859;-36
2021/05/13 03:04:59;;;;;;;;;;;;;;;21.66;56.91;100162.69;2100485;28;4127;-38
2021/05/13 03:06:00;;;;;;;;;;;;;;;21.66;56.87;100162.69;2102090;28;3967;-38
2021/05/13 03:07:01;;;;;;;;;;;;;;;21.66;57.14;100154.97;2100511;28;3904;-37
2021/05/13 03:08:04;;;;;;;;;;;;;;;21.65;56.98;100156.19;2101326;28;3988;-40
2021/05/13 03:09:05;;;;;;;;;;;;;;;21.65;57.08;100159.03;2099957;28;4080;-40
2021/05/13 03:10:14;;;;;;;;;;;;;;;21.65;57.04;100156.19;2101904;28;4007;-40
2021/05/13 03:11:15;;;;;;;;;;;;;;;21.66;57.02;100157.81;2100796;28;4762;-36
2021/05/13 03:12:17;;;;;;;;;;;;;;;21.67;57.04;100147.25;2101049;28;4011;-38
2021/05/13 03:13:23;;;;;;;;;;;;;;;21.65;56.94;100159.03;2092666;28;4056;-41
2021/05/13 03:14:25;;;;;;;;;;;;;;;21.66;56.82;100159.84;2101273;28;3886;-40
2021/05/13 03:15:26;;;;;;;;;;;;;;;21.66;56.80;100166.34;2100127;28;3929;-37
2021/05/13 03:16:27;;;;;;;;;;;;;;;21.65;56.89;100161.88;2101379;28;3914;-38
2021/05/13 03:17:29;;;;;;;;;;;;;;;21.65;56.99;100161.88;2102000;28;4036;-39
2021/05/13 03:18:31;;;;;;;;;;;;;;;21.65;56.94;100164.72;2099782;28;4266;-40
2021/05/13 03:19:45;;;;;;;;;;;;;;;21.66;56.87;100163.50;2100374;28;3870;-39
2021/05/13 03:20:50;;;;;;;;;;;;;;;21.67;56.80;100170.03;2101249;28;4014;-40
2021/05/13 03:21:54;;;;;;;;;;;;;;;21.66;56.93;100166.34;2100619;28;4043;-38
2021/05/13 03:22:57;;;;;;;;;;;;;;;21.66;56.82;100174.91;2101365;28;4129;-38
2021/05/13 03:24:06;;;;;;;;;;;;;;;21.67;56.99;100170.03;2101119;28;4828;-40
2021/05/13 03:25:08;;;;;;;;;;;;;;;21.66;56.86;100171.25;2101697;28;3827;-38
2021/05/13 03:26:09;;;;;;;;;;;;;;;21.67;56.85;100182.25;2100194;28;3969;-38
2021/05/13 03:27:14;;;;;;;;;;;;;;;21.67;56.91;100172.88;2100782;28;4907;-39
2021/05/13 03:28:15;;;;;;;;;;;;;;;21.67;57.01;100178.56;2100629;28;3866;-37
2021/05/13 03:29:17;;;;;;;;;;;;;;;21.67;56.91;100178.56;2101319;28;4054;-40
2021/05/13 03:30:20;;;;;;;;;;;;;;;21.67;56.80;100176.56;2093744;28;4061;-39
2021/05/13 03:31:21;;;;;;;;;;;;;;;21.67;56.78;100181.41;2097939;28;4010;-37
2021/05/13 03:32:22;;;;;;;;;;;;;;;21.66;56.91;100174.91;2100933;28;4239;-40
2021/05/13 03:33:24;;;;;;;;;;;;;;;21.67;56.94;100185.09;2102191;28;4194;-36
2021/05/13 03:34:25;;;;;;;;;;;;;;;21.67;56.92;100187.09;2100916;28;4059;-37
2021/05/13 03:35:26;;;;;;;;;;;;;;;21.66;56.98;100174.91;2101998;28;3970;-37
2021/05/13 03:36:27;;;;;;;;;;;;;;;21.67;56.99;100178.56;2100848;28;3895;-39
2021/05/13 03:37:29;;;;;;;;;;;;;;;21.66;56.93;100174.91;2101740;28;4003;-40
2021/05/13 03:38:30;;;;;;;;;;;;;;;21.67;56.73;100176.56;2101026;28;4053;-34
2021/05/13 03:39:32;;;;;;;;;;;;;;;21.66;56.90;100182.63;2101694;28;3922;-37
2021/05/13 03:40:33;;;;;;;;;;;;;;;21.67;56.84;100175.72;2101258;28;3853;-39
2021/05/13 03:41:34;;;;;;;;;;;;;;;21.67;56.78;100170.88;2100221;28;4028;-40
2021/05/13 03:42:35;;;;;;;;;;;;;;;21.67;56.94;100170.03;2101711;28;4260;-35
2021/05/13 03:43:37;;;;;;;;;;;;;;;21.66;56.73;100163.50;2102191;28;4056;-36
2021/05/13 03:44:38;;;;;;;;;;;;;;;21.67;56.81;100164.34;2101051;28;4049;-39
2021/05/13 03:45:39;;;;;;;;;;;;;;;21.67;56.77;100165.19;2101987;28;4044;-39
2021/05/13 03:46:41;;;;;;;;;;;;;;;21.67;56.86;100159.50;2100959;28;3956;-36
2021/05/13 03:47:42;;;;;;;;;;;;;;;21.67;56.83;100153.78;2101214;28;4070;-40
2021/05/13 03:48:43;;;;;;;;;;;;;;;21.66;56.67;100159.84;2101709;28;4042;-37
2021/05/13 03:49:45;;;;;;;;;;;;;;;21.67;56.84;100164.34;2101267;28;4027;-39
2021/05/13 03:50:46;;;;;;;;;;;;;;;21.66;56.82;100160.66;2101312;28;3930;-40
2021/05/13 03:51:48;;;;;;;;;;;;;;;21.66;56.79;100157.00;2102172;28;4018;-39
2021/05/13 03:52:49;;;;;;;;;;;;;;;21.66;56.72;100154.97;2100537;28;4070;-38
2021/05/13 03:53:50;;;;;;;;;;;;;;;21.66;56.85;100154.16;2102250;28;4029;-36
2021/05/13 03:54:52;;;;;;;;;;;;;;;21.66;56.89;100152.13;2100764;28;4000;-39
2021/05/13 03:55:53;;;;;;;;;;;;;;;21.67;56.84;100150.09;2101104;28;4015;-40
2021/05/13 03:56:54;;;;;;;;;;;;;;;21.65;56.73;100150.50;2101361;28;4058;-39
2021/05/13 03:57:58;;;;;;;;;;;;;;;21.66;56.69;100149.28;2101113;28;4153;-40
2021/05/13 03:59:10;;;;;;;;;;;;;;;21.66;56.68;100154.16;2100207;28;3983;-36
2021/05/13 04:00:13;;;;;;;;;;;;;;;21.66;56.79;100149.28;2100830;28;4751;-40
2021/05/13 04:01:28;;;;;;;;;;;;;;;21.66;56.71;100157.81;2101141;28;4129;-35
2021/05/13 04:02:32;;;;;;;;;;;;;;;21.66;56.75;100149.28;2100553;28;4211;-38
2021/05/13 04:03:33;;;;;;;;;;;;;;;21.66;56.84;100157.81;2102078;28;4076;-38
2021/05/13 04:04:34;;;;;;;;;;;;;;;21.66;56.84;100146.44;2100166;28;4218;-38
2021/05/13 04:05:36;;;;;;;;;;;;;;;21.66;56.66;100152.13;2101389;28;4084;-38
2021/05/13 04:06:37;;;;;;;;;;;;;;;21.67;56.82;100158.63;2101351;28;4020;-40
2021/05/13 04:07:39;;;;;;;;;;;;;;;21.66;56.73;100143.59;2100567;28;4005;-39
2021/05/13 04:08:40;;;;;;;;;;;;;;;21.67;56.84;100148.09;2101723;28;3845;-40
2021/05/13 04:09:41;;;;;;;;;;;;;;;21.66;56.79;100152.13;2101332;28;4060;-36
2021/05/13 04:10:42;;;;;;;;;;;;;;;21.67;56.76;100150.09;2100357;28;4071;-36
2021/05/13 04:11:44;;;;;;;;;;;;;;;21.66;56.75;100143.59;2101279;28;4082;-36
2021/05/13 04:12:45;;;;;;;;;;;;;;;21.66;56.89;100142.78;2099890;28;3992;-40
2021/05/13 04:13:47;;;;;;;;;;;;;;;21.66;56.90;100145.63;2101551;28;4012;-37
2021/05/13 04:14:49;;;;;;;;;;;;;;;21.66;56.84;100152.13;2100350;28;4007;-37
2021/05/13 04:15:50;;;;;;;;;;;;;;;21.66;56.86;100149.28;2101213;28;4079;-37
2021/05/13 04:16:54;;;;;;;;;;;;;;;21.67;56.75;100150.09;2101828;28;4084;-39
2021/05/13 04:17:56;;;;;;;;;;;;;;;21.66;56.88;100152.13;2100527;28;4037;-40
2021/05/13 04:18:57;;;;;;;;;;;;;;;21.66;56.83;100157.81;2100398;28;4372;-40
2021/05/13 04:19:58;;;;;;;;;;;;;;;21.66;56.75;100149.28;2101137;28;3843;-40
2021/05/13 04:20:59;;;;;;;;;;;;;;;21.67;56.80;100144.41;2098722;28;4263;-37
2021/05/13 04:22:01;;;;;;;;;;;;;;;21.67;56.67;100147.25;2101326;28;4408;-40
2021/05/13 04:23:02;;;;;;;;;;;;;;;21.67;56.78;100147.25;2100438;28;3953;-39
2021/05/13 04:24:03;;;;;;;;;;;;;;;21.66;56.83;100146.44;2098774;28;3983;-36
2021/05/13 04:25:04;;;;;;;;;;;;;;;21.66;56.72;100143.59;2101054;28;4044;-40
2021/05/13 04:26:06;;;;;;;;;;;;;;;21.66;56.88;100146.44;2100524;28;4621;-37
2021/05/13 04:27:07;;;;;;;;;;;;;;;21.67;56.80;100148.09;2101280;28;3799;-39
2021/05/13 04:28:08;;;;;;;;;;;;;;;21.66;56.79;100146.44;2100113;28;3976;-40
2021/05/13 04:29:09;;;;;;;;;;;;;;;21.66;56.76;100149.28;2098444;28;4061;-40
2021/05/13 04:30:11;;;;;;;;;;;;;;;21.66;56.81;100146.44;2099942;28;5862;-40
2021/05/13 04:31:12;;;;;;;;;;;;;;;21.66;56.85;100146.44;2101050;28;4023;-40
2021/05/13 04:32:13;;;;;;;;;;;;;;;21.65;56.82;100139.09;2098201;28;3874;-39
2021/05/13 04:33:14;;;;;;;;;;;;;;;21.66;56.82;100146.44;2101110;28;4053;-40
2021/05/13 04:34:16;;;;;;;;;;;;;;;21.67;56.62;100147.25;2099274;28;3894;-37
2021/05/13 04:35:17;;;;;;;;;;;;;;;21.66;56.69;100143.59;2101507;28;4975;-40
2021/05/13 04:36:22;;;;;;;;;;;;;;;21.66;56.70;100142.78;2101744;28;3989;-40
2021/05/13 04:37:24;;;;;;;;;;;;;;;21.66;56.66;100149.28;2101577;28;4214;-38
2021/05/13 04:38:25;;;;;;;;;;;;;;;21.66;56.72;100146.44;2099544;28;4061;-38
2021/05/13 04:39:26;;;;;;;;;;;;;;;21.65;56.77;100144.81;2101315;28;4063;-40
2021/05/13 04:40:27;;;;;;;;;;;;;;;21.66;57.00;100145.63;2101068;28;3992;-37
2021/05/13 04:41:33;;;;;;;;;;;;;;;21.65;56.73;100136.25;2097848;28;4044;-40
2021/05/13 04:42:35;;;;;;;;;;;;;;;21.66;56.73;100143.59;2099504;28;4027;-37
2021/05/13 04:43:36;;;;;;;;;;;;;;;21.66;56.76;100145.63;2103239;28;4071;-40
2021/05/13 04:44:37;;;;;;;;;;;;;;;21.65;56.75;100147.66;2102800;28;4389;-37
2021/05/13 04:45:39;;;;;;;;;;;;;;;21.67;56.62;100141.56;2102783;28;4128;-38
2021/05/13 04:46:40;;;;;;;;;;;;;;;21.67;56.80;100147.25;2099169;28;4198;-40
2021/05/13 04:49:53;;;;;;;;;;;;;;;21.66;56.67;100142.78;2101366;28;4065;-38
2021/05/13 04:50:54;;;;;;;;;;;;;;;21.67;56.82;100141.56;2102043;28;3995;-37
2021/05/13 04:51:56;;;;;;;;;;;;;;;21.67;56.93;100142.41;2102424;28;3998;-38
2021/05/13 04:53:00;;;;;;;;;;;;;;;21.66;56.61;100137.06;2103020;28;3856;-38
2021/05/13 04:54:01;;;;;;;;;;;;;;;21.66;56.59;100142.78;2099320;28;3934;-35
2021/05/13 04:55:03;;;;;;;;;;;;;;;21.64;56.78;100140.31;2103252;28;4105;-39
2021/05/13 04:56:04;;;;;;;;;;;;;;;21.65;56.64;100141.94;2101928;28;4001;-40
2021/05/13 04:57:05;;;;;;;;;;;;;;;21.64;56.74;100142.31;2098427;28;3982;-37
2021/05/13 04:58:07;;;;;;;;;;;;;;;21.66;56.83;100134.22;2102694;28;3971;-36
2021/05/13 04:59:08;;;;;;;;;;;;;;;21.65;56.67;100130.56;2100053;28;3937;-35
2021/05/13 05:00:10;;;;;;;;;;;;;;;21.64;56.76;100137.47;2102680;28;3792;-37
2021/05/13 05:01:11;;;;;;;;;;;;;;;21.65;56.75;100135.44;2101716;28;4539;-38
2021/05/13 05:02:16;;;;;;;;;;;;;;;21.66;56.55;100142.78;2101901;28;4110;-35
2021/05/13 05:03:17;;;;;;;;;;;;;;;21.65;56.65;100133.41;2103249;28;4032;-39
2021/05/13 05:04:18;;;;;;;;;;;;;;;21.65;56.72;100139.09;2102701;28;4040;-39
2021/05/13 05:05:20;;;;;;;;;;;;;;;21.65;56.70;100130.56;2101940;28;3949;-36
2021/05/13 05:06:21;;;;;;;;;;;;;;;21.66;56.66;100139.91;2102506;28;4041;-37
2021/05/13 05:07:22;;;;;;;;;;;;;;;21.66;56.74;100137.06;2102576;28;4052;-36
2021/05/13 05:08:23;;;;;;;;;;;;;;;21.66;56.71;100134.22;2102291;28;4032;-40
2021/05/13 05:09:25;;;;;;;;;;;;;;;21.65;56.66;100135.44;2103107;28;4325;-33
2021/05/13 05:10:26;;;;;;;;;;;;;;;21.66;56.73;100137.06;2101583;28;3908;-35
2021/05/13 05:11:27;;;;;;;;;;;;;;;21.66;56.78;100139.91;2102618;28;4369;-37
2021/05/13 05:12:28;;;;;;;;;;;;;;;21.65;56.60;100127.72;2102706;28;4058;-38
2021/05/13 05:13:30;;;;;;;;;;;;;;;21.66;56.63;100137.06;2102029;28;3893;-39
2021/05/13 05:14:32;;;;;;;;;;;;;;;21.66;56.82;100140.75;2102343;28;4080;-37
2021/05/13 05:15:33;;;;;;;;;;;;;;;21.66;56.74;100134.22;2102839;28;4105;-38
2021/05/13 05:16:34;;;;;;;;;;;;;;;21.65;56.61;100136.25;2103011;28;3877;-38
2021/05/13 05:17:39;;;;;;;;;;;;;;;21.66;56.59;100128.53;2103446;28;4059;-39
2021/05/13 05:18:41;;;;;;;;;;;;;;;21.65;56.83;100141.94;2101994;28;4209;-36
2021/05/13 05:19:42;;;;;;;;;;;;;;;21.66;56.70;100131.38;2102496;28;4083;-37
2021/05/13 05:20:43;;;;;;;;;;;;;;;21.65;56.78;100136.25;2101923;28;4047;-38
2021/05/13 05:21:44;;;;;;;;;;;;;;;21.66;56.71;100137.06;2103166;28;3839;-37
2021/05/13 05:22:46;;;;;;;;;;;;;;;21.65;56.71;100143.97;2102202;28;4231;-37
2021/05/13 05:23:47;;;;;;;;;;;;;;;21.65;56.81;100139.09;2102189;28;4043;-35
2021/05/13 05:24:48;;;;;;;;;;;;;;;21.65;56.66;100129.75;2101136;28;4165;-35
2021/05/13 05:25:50;;;;;;;;;;;;;;;21.66;56.69;100143.59;2103140;28;4399;-39
2021/05/13 05:26:51;;;;;;;;;;;;;;;21.65;56.83;100139.09;2102172;28;4032;-33